sensor_id;sensor_type;location;lat;lon;timestamp;P1;durP1;ratioP1;P2;durP2;ratioP2
4138;SDS011;2083;51.034;6.996;2022-10-16T00:00:39;4.83;;;2.63;;
4138;SDS011;2083;51.034;6.996;2022-10-16T00:03:05;2.80;;;2.60;;
4138;SDS011;2083;51.034;6.996;2022-10-16T00:05:32;4.33;;;2.07;;
4138;SDS011;2083;51.034;6.996;2022-10-16T00:07:58;2.50;;;2.40;;
4138;SDS011;2083;51.034;6.996;2022-10-16T00:10:24;2.83;;;2.60;;
4138;SDS011;2083;51.034;6.996;2022-10-16T00:12:50;2.70;;;2.60;;
4138;SDS011;2083;51.034;6.996;2022-10-16T00:15:16;7.90;;;1.83;;
4138;SDS011;2083;51.034;6.996;2022-10-16T00:17:42;2.60;;;2.50;;
4138;SDS011;2083;51.034;6.996;2022-10-16T00:20:08;2.23;;;2.10;;
4138;SDS011;2083;51.034;6.996;2022-10-16T00:22:34;2.07;;;1.97;;
4138;SDS011;2083;51.034;6.996;2022-10-16T00:25:00;2.20;;;1.70;;
4138;SDS011;2083;51.034;6.996;2022-10-16T00:27:26;1.90;;;1.80;;
4138;SDS011;2083;51.034;6.996;2022-10-16T00:29:52;8.23;;;2.60;;
4138;SDS011;2083;51.034;6.996;2022-10-16T00:32:19;2.27;;;2.17;;
4138;SDS011;2083;51.034;6.996;2022-10-16T00:34:45;2.93;;;1.40;;
4138;SDS011;2083;51.034;6.996;2022-10-16T00:37:11;1.43;;;1.40;;
4138;SDS011;2083;51.034;6.996;2022-10-16T00:39:37;1.30;;;1.30;;
4138;SDS011;2083;51.034;6.996;2022-10-16T00:42:03;1.30;;;1.30;;
4138;SDS011;2083;51.034;6.996;2022-10-16T00:47:09;1.57;;;1.57;;
4138;SDS011;2083;51.034;6.996;2022-10-16T00:49:36;1.63;;;1.63;;
4138;SDS011;2083;51.034;6.996;2022-10-16T00:52:02;1.90;;;1.83;;
4138;SDS011;2083;51.034;6.996;2022-10-16T00:54:29;2.40;;;2.23;;
4138;SDS011;2083;51.034;6.996;2022-10-16T00:56:56;2.23;;;2.13;;
4138;SDS011;2083;51.034;6.996;2022-10-16T00:59:27;2.80;;;1.70;;
4138;SDS011;2083;51.034;6.996;2022-10-16T01:01:54;2.00;;;1.90;;
4138;SDS011;2083;51.034;6.996;2022-10-16T01:04:20;2.00;;;1.90;;
4138;SDS011;2083;51.034;6.996;2022-10-16T01:06:51;1.93;;;1.83;;
4138;SDS011;2083;51.034;6.996;2022-10-16T01:11:57;1.27;;;1.27;;
4138;SDS011;2083;51.034;6.996;2022-10-16T01:14:36;2.20;;;2.07;;
4138;SDS011;2083;51.034;6.996;2022-10-16T01:17:15;5.10;;;1.77;;
4138;SDS011;2083;51.034;6.996;2022-10-16T01:19:46;2.90;;;1.27;;
4138;SDS011;2083;51.034;6.996;2022-10-16T01:22:16;0.90;;;0.90;;
4138;SDS011;2083;51.034;6.996;2022-10-16T01:24:44;2.50;;;1.30;;
4138;SDS011;2083;51.034;6.996;2022-10-16T01:27:12;0.53;;;0.53;;
4138;SDS011;2083;51.034;6.996;2022-10-16T01:29:40;1.27;;;1.27;;
4138;SDS011;2083;51.034;6.996;2022-10-16T01:34:53;2.10;;;1.30;;
4138;SDS011;2083;51.034;6.996;2022-10-16T01:37:28;1.50;;;1.40;;
4138;SDS011;2083;51.034;6.996;2022-10-16T01:39:55;1.40;;;1.40;;
4138;SDS011;2083;51.034;6.996;2022-10-16T01:42:25;1.10;;;1.10;;
4138;SDS011;2083;51.034;6.996;2022-10-16T01:44:54;1.33;;;1.23;;
4138;SDS011;2083;51.034;6.996;2022-10-16T01:47:21;1.37;;;1.37;;
4138;SDS011;2083;51.034;6.996;2022-10-16T01:49:49;1.43;;;1.33;;
4138;SDS011;2083;51.034;6.996;2022-10-16T01:52:17;1.20;;;1.20;;
4138;SDS011;2083;51.034;6.996;2022-10-16T01:54:46;1.20;;;1.20;;
4138;SDS011;2083;51.034;6.996;2022-10-16T01:57:13;1.33;;;1.33;;
4138;SDS011;2083;51.034;6.996;2022-10-16T01:59:42;1.37;;;1.37;;
4138;SDS011;2083;51.034;6.996;2022-10-16T02:02:09;1.50;;;1.50;;
4138;SDS011;2083;51.034;6.996;2022-10-16T02:04:38;1.33;;;1.33;;
4138;SDS011;2083;51.034;6.996;2022-10-16T02:07:04;1.43;;;1.33;;
4138;SDS011;2083;51.034;6.996;2022-10-16T02:09:32;1.47;;;1.47;;
4138;SDS011;2083;51.034;6.996;2022-10-16T02:11:59;3.13;;;1.93;;
4138;SDS011;2083;51.034;6.996;2022-10-16T02:14:27;1.93;;;1.73;;
4138;SDS011;2083;51.034;6.996;2022-10-16T02:16:53;1.40;;;1.40;;
4138;SDS011;2083;51.034;6.996;2022-10-16T02:19:19;5.23;;;1.60;;
4138;SDS011;2083;51.034;6.996;2022-10-16T02:21:50;2.30;;;1.67;;
4138;SDS011;2083;51.034;6.996;2022-10-16T02:26:51;1.90;;;1.67;;
4138;SDS011;2083;51.034;6.996;2022-10-16T02:29:19;1.00;;;1.00;;
4138;SDS011;2083;51.034;6.996;2022-10-16T02:31:46;1.70;;;1.70;;
4138;SDS011;2083;51.034;6.996;2022-10-16T02:34:14;1.47;;;1.37;;
4138;SDS011;2083;51.034;6.996;2022-10-16T02:36:41;1.33;;;1.33;;
4138;SDS011;2083;51.034;6.996;2022-10-16T02:39:07;1.20;;;1.20;;
4138;SDS011;2083;51.034;6.996;2022-10-16T02:41:33;1.80;;;1.70;;
4138;SDS011;2083;51.034;6.996;2022-10-16T02:43:59;1.43;;;1.33;;
4138;SDS011;2083;51.034;6.996;2022-10-16T02:46:26;1.13;;;1.13;;
4138;SDS011;2083;51.034;6.996;2022-10-16T02:48:52;1.70;;;1.70;;
4138;SDS011;2083;51.034;6.996;2022-10-16T02:51:18;1.50;;;1.50;;
4138;SDS011;2083;51.034;6.996;2022-10-16T02:53:44;1.50;;;1.50;;
4138;SDS011;2083;51.034;6.996;2022-10-16T02:56:10;19.50;;;1.57;;
4138;SDS011;2083;51.034;6.996;2022-10-16T02:58:36;1.50;;;1.50;;
4138;SDS011;2083;51.034;6.996;2022-10-16T03:01:02;1.97;;;1.90;;
4138;SDS011;2083;51.034;6.996;2022-10-16T03:03:28;1.60;;;1.50;;
4138;SDS011;2083;51.034;6.996;2022-10-16T03:05:54;1.20;;;1.20;;
4138;SDS011;2083;51.034;6.996;2022-10-16T03:08:20;5.03;;;1.70;;
4138;SDS011;2083;51.034;6.996;2022-10-16T03:10:48;1.50;;;1.50;;
4138;SDS011;2083;51.034;6.996;2022-10-16T03:13:14;4.10;;;1.60;;
4138;SDS011;2083;51.034;6.996;2022-10-16T03:15:40;1.47;;;1.37;;
4138;SDS011;2083;51.034;6.996;2022-10-16T03:18:06;1.87;;;1.50;;
4138;SDS011;2083;51.034;6.996;2022-10-16T03:20:32;1.30;;;1.30;;
4138;SDS011;2083;51.034;6.996;2022-10-16T03:22:58;1.07;;;1.07;;
4138;SDS011;2083;51.034;6.996;2022-10-16T03:25:24;4.40;;;1.60;;
4138;SDS011;2083;51.034;6.996;2022-10-16T03:27:50;1.00;;;1.00;;
4138;SDS011;2083;51.034;6.996;2022-10-16T03:30:16;1.20;;;1.20;;
4138;SDS011;2083;51.034;6.996;2022-10-16T03:32:43;2.10;;;1.50;;
4138;SDS011;2083;51.034;6.996;2022-10-16T03:35:09;1.33;;;1.33;;
4138;SDS011;2083;51.034;6.996;2022-10-16T03:37:35;1.90;;;1.13;;
4138;SDS011;2083;51.034;6.996;2022-10-16T03:40:02;1.50;;;1.37;;
4138;SDS011;2083;51.034;6.996;2022-10-16T03:42:28;3.30;;;1.73;;
4138;SDS011;2083;51.034;6.996;2022-10-16T03:44:54;1.70;;;1.13;;
4138;SDS011;2083;51.034;6.996;2022-10-16T03:47:20;1.50;;;1.50;;
4138;SDS011;2083;51.034;6.996;2022-10-16T03:49:48;1.33;;;1.33;;
4138;SDS011;2083;51.034;6.996;2022-10-16T03:52:14;1.70;;;1.60;;
4138;SDS011;2083;51.034;6.996;2022-10-16T03:54:40;1.40;;;1.40;;
4138;SDS011;2083;51.034;6.996;2022-10-16T03:57:06;1.73;;;1.63;;
4138;SDS011;2083;51.034;6.996;2022-10-16T03:59:31;1.77;;;1.67;;
4138;SDS011;2083;51.034;6.996;2022-10-16T04:01:57;1.67;;;1.50;;
4138;SDS011;2083;51.034;6.996;2022-10-16T04:04:23;3.97;;;1.57;;
4138;SDS011;2083;51.034;6.996;2022-10-16T04:06:50;1.50;;;1.40;;
4138;SDS011;2083;51.034;6.996;2022-10-16T04:09:16;3.03;;;1.73;;
4138;SDS011;2083;51.034;6.996;2022-10-16T04:11:41;1.83;;;1.83;;
4138;SDS011;2083;51.034;6.996;2022-10-16T04:14:07;2.70;;;1.50;;
4138;SDS011;2083;51.034;6.996;2022-10-16T04:16:33;3.73;;;1.30;;
4138;SDS011;2083;51.034;6.996;2022-10-16T04:18:59;1.57;;;1.47;;
4138;SDS011;2083;51.034;6.996;2022-10-16T04:21:25;1.57;;;1.57;;
4138;SDS011;2083;51.034;6.996;2022-10-16T04:23:51;1.50;;;1.40;;
4138;SDS011;2083;51.034;6.996;2022-10-16T04:26:17;2.40;;;1.60;;
4138;SDS011;2083;51.034;6.996;2022-10-16T04:28:43;2.70;;;1.40;;
4138;SDS011;2083;51.034;6.996;2022-10-16T04:31:09;3.70;;;1.67;;
4138;SDS011;2083;51.034;6.996;2022-10-16T04:33:35;1.60;;;1.50;;
4138;SDS011;2083;51.034;6.996;2022-10-16T04:36:01;1.27;;;1.23;;
4138;SDS011;2083;51.034;6.996;2022-10-16T04:38:28;1.53;;;1.43;;
4138;SDS011;2083;51.034;6.996;2022-10-16T04:40:54;1.50;;;1.50;;
4138;SDS011;2083;51.034;6.996;2022-10-16T04:43:20;3.43;;;2.23;;
4138;SDS011;2083;51.034;6.996;2022-10-16T04:45:46;1.60;;;1.60;;
4138;SDS011;2083;51.034;6.996;2022-10-16T04:48:12;1.80;;;1.70;;
4138;SDS011;2083;51.034;6.996;2022-10-16T04:50:38;1.33;;;1.33;;
4138;SDS011;2083;51.034;6.996;2022-10-16T04:53:05;5.40;;;1.57;;
4138;SDS011;2083;51.034;6.996;2022-10-16T04:55:32;1.23;;;1.23;;
4138;SDS011;2083;51.034;6.996;2022-10-16T04:57:58;1.97;;;1.30;;
4138;SDS011;2083;51.034;6.996;2022-10-16T05:00:23;10.13;;;1.47;;
4138;SDS011;2083;51.034;6.996;2022-10-16T05:02:50;1.40;;;1.40;;
4138;SDS011;2083;51.034;6.996;2022-10-16T05:05:16;1.53;;;1.53;;
4138;SDS011;2083;51.034;6.996;2022-10-16T05:07:44;1.40;;;1.40;;
4138;SDS011;2083;51.034;6.996;2022-10-16T05:10:10;1.50;;;1.40;;
4138;SDS011;2083;51.034;6.996;2022-10-16T05:12:36;1.23;;;1.23;;
4138;SDS011;2083;51.034;6.996;2022-10-16T05:15:02;1.73;;;1.63;;
4138;SDS011;2083;51.034;6.996;2022-10-16T05:17:28;1.60;;;1.50;;
4138;SDS011;2083;51.034;6.996;2022-10-16T05:19:54;1.43;;;1.33;;
4138;SDS011;2083;51.034;6.996;2022-10-16T05:22:20;1.73;;;1.63;;
4138;SDS011;2083;51.034;6.996;2022-10-16T05:24:46;1.70;;;1.40;;
4138;SDS011;2083;51.034;6.996;2022-10-16T05:27:12;1.80;;;1.80;;
4138;SDS011;2083;51.034;6.996;2022-10-16T05:29:44;1.03;;;1.03;;
4138;SDS011;2083;51.034;6.996;2022-10-16T05:32:10;1.20;;;1.13;;
4138;SDS011;2083;51.034;6.996;2022-10-16T05:34:36;1.50;;;1.50;;
4138;SDS011;2083;51.034;6.996;2022-10-16T05:37:02;1.63;;;1.53;;
4138;SDS011;2083;51.034;6.996;2022-10-16T05:39:28;2.93;;;1.27;;
4138;SDS011;2083;51.034;6.996;2022-10-16T05:41:54;1.20;;;1.20;;
4138;SDS011;2083;51.034;6.996;2022-10-16T05:44:20;3.23;;;1.73;;
4138;SDS011;2083;51.034;6.996;2022-10-16T05:46:46;1.30;;;1.30;;
4138;SDS011;2083;51.034;6.996;2022-10-16T05:49:12;2.40;;;1.73;;
4138;SDS011;2083;51.034;6.996;2022-10-16T05:51:38;3.00;;;1.60;;
4138;SDS011;2083;51.034;6.996;2022-10-16T05:54:04;1.43;;;1.43;;
4138;SDS011;2083;51.034;6.996;2022-10-16T05:56:30;1.10;;;1.10;;
4138;SDS011;2083;51.034;6.996;2022-10-16T05:58:56;1.43;;;1.43;;
4138;SDS011;2083;51.034;6.996;2022-10-16T06:01:22;1.77;;;1.67;;
4138;SDS011;2083;51.034;6.996;2022-10-16T06:03:49;1.30;;;1.30;;
4138;SDS011;2083;51.034;6.996;2022-10-16T06:06:18;1.27;;;1.27;;
4138;SDS011;2083;51.034;6.996;2022-10-16T06:08:45;8.53;;;1.70;;
4138;SDS011;2083;51.034;6.996;2022-10-16T06:11:12;1.27;;;1.27;;
4138;SDS011;2083;51.034;6.996;2022-10-16T06:13:38;3.07;;;1.40;;
4138;SDS011;2083;51.034;6.996;2022-10-16T06:16:06;2.77;;;1.40;;
4138;SDS011;2083;51.034;6.996;2022-10-16T06:18:32;3.50;;;1.87;;
4138;SDS011;2083;51.034;6.996;2022-10-16T06:20:58;1.43;;;1.43;;
4138;SDS011;2083;51.034;6.996;2022-10-16T06:23:24;0.97;;;0.97;;
4138;SDS011;2083;51.034;6.996;2022-10-16T06:25:51;1.43;;;1.43;;
4138;SDS011;2083;51.034;6.996;2022-10-16T06:28:16;1.60;;;1.60;;
4138;SDS011;2083;51.034;6.996;2022-10-16T06:30:42;2.20;;;1.20;;
4138;SDS011;2083;51.034;6.996;2022-10-16T06:33:09;2.07;;;1.53;;
4138;SDS011;2083;51.034;6.996;2022-10-16T06:35:35;2.20;;;1.43;;
4138;SDS011;2083;51.034;6.996;2022-10-16T06:38:01;1.60;;;1.50;;
4138;SDS011;2083;51.034;6.996;2022-10-16T06:40:27;1.73;;;1.63;;
4138;SDS011;2083;51.034;6.996;2022-10-16T06:42:57;1.30;;;1.30;;
4138;SDS011;2083;51.034;6.996;2022-10-16T06:45:23;1.93;;;1.83;;
4138;SDS011;2083;51.034;6.996;2022-10-16T06:47:48;0.60;;;0.60;;
4138;SDS011;2083;51.034;6.996;2022-10-16T06:50:14;1.40;;;1.40;;
4138;SDS011;2083;51.034;6.996;2022-10-16T06:52:40;2.37;;;1.27;;
4138;SDS011;2083;51.034;6.996;2022-10-16T06:55:06;1.50;;;1.50;;
4138;SDS011;2083;51.034;6.996;2022-10-16T06:57:32;1.27;;;1.27;;
4138;SDS011;2083;51.034;6.996;2022-10-16T06:59:58;1.70;;;1.70;;
4138;SDS011;2083;51.034;6.996;2022-10-16T07:05:28;1.37;;;1.37;;
4138;SDS011;2083;51.034;6.996;2022-10-16T07:07:54;5.03;;;1.60;;
4138;SDS011;2083;51.034;6.996;2022-10-16T07:10:20;1.20;;;1.20;;
4138;SDS011;2083;51.034;6.996;2022-10-16T07:12:49;1.77;;;1.67;;
4138;SDS011;2083;51.034;6.996;2022-10-16T07:15:15;1.50;;;1.50;;
4138;SDS011;2083;51.034;6.996;2022-10-16T07:17:40;1.33;;;1.33;;
4138;SDS011;2083;51.034;6.996;2022-10-16T07:20:07;3.30;;;2.00;;
4138;SDS011;2083;51.034;6.996;2022-10-16T07:22:33;1.40;;;1.40;;
4138;SDS011;2083;51.034;6.996;2022-10-16T07:24:58;1.80;;;1.70;;
4138;SDS011;2083;51.034;6.996;2022-10-16T07:27:24;1.60;;;1.50;;
4138;SDS011;2083;51.034;6.996;2022-10-16T07:29:51;1.80;;;1.60;;
4138;SDS011;2083;51.034;6.996;2022-10-16T07:32:17;1.60;;;1.50;;
4138;SDS011;2083;51.034;6.996;2022-10-16T07:34:43;1.70;;;1.60;;
4138;SDS011;2083;51.034;6.996;2022-10-16T07:37:10;2.00;;;1.90;;
4138;SDS011;2083;51.034;6.996;2022-10-16T07:39:36;2.00;;;1.90;;
4138;SDS011;2083;51.034;6.996;2022-10-16T07:42:02;4.80;;;1.67;;
4138;SDS011;2083;51.034;6.996;2022-10-16T07:44:28;2.03;;;1.83;;
4138;SDS011;2083;51.034;6.996;2022-10-16T07:46:54;1.63;;;1.50;;
4138;SDS011;2083;51.034;6.996;2022-10-16T07:49:20;2.00;;;1.90;;
4138;SDS011;2083;51.034;6.996;2022-10-16T07:51:46;1.80;;;1.70;;
4138;SDS011;2083;51.034;6.996;2022-10-16T07:54:12;1.63;;;1.53;;
4138;SDS011;2083;51.034;6.996;2022-10-16T07:56:38;1.80;;;1.70;;
4138;SDS011;2083;51.034;6.996;2022-10-16T07:59:04;2.00;;;1.80;;
4138;SDS011;2083;51.034;6.996;2022-10-16T08:01:30;1.70;;;1.60;;
4138;SDS011;2083;51.034;6.996;2022-10-16T08:03:55;1.70;;;1.60;;
4138;SDS011;2083;51.034;6.996;2022-10-16T08:06:22;1.23;;;1.13;;
4138;SDS011;2083;51.034;6.996;2022-10-16T08:08:48;3.00;;;1.40;;
4138;SDS011;2083;51.034;6.996;2022-10-16T08:11:14;3.00;;;1.23;;
4138;SDS011;2083;51.034;6.996;2022-10-16T08:13:40;8.20;;;1.43;;
4138;SDS011;2083;51.034;6.996;2022-10-16T08:16:06;6.80;;;1.20;;
4138;SDS011;2083;51.034;6.996;2022-10-16T08:18:34;1.03;;;0.90;;
4138;SDS011;2083;51.034;6.996;2022-10-16T08:21:00;3.33;;;1.17;;
4138;SDS011;2083;51.034;6.996;2022-10-16T08:23:27;4.37;;;1.27;;
4138;SDS011;2083;51.034;6.996;2022-10-16T08:25:53;2.77;;;0.97;;
4138;SDS011;2083;51.034;6.996;2022-10-16T08:28:19;0.80;;;0.80;;
4138;SDS011;2083;51.034;6.996;2022-10-16T08:30:45;1.00;;;0.90;;
4138;SDS011;2083;51.034;6.996;2022-10-16T08:33:11;1.10;;;1.00;;
4138;SDS011;2083;51.034;6.996;2022-10-16T08:35:37;3.87;;;1.20;;
4138;SDS011;2083;51.034;6.996;2022-10-16T08:38:03;3.00;;;0.90;;
4138;SDS011;2083;51.034;6.996;2022-10-16T08:40:30;1.73;;;1.07;;
4138;SDS011;2083;51.034;6.996;2022-10-16T08:43:01;2.90;;;0.80;;
4138;SDS011;2083;51.034;6.996;2022-10-16T08:50:26;1.67;;;1.20;;
4138;SDS011;2083;51.034;6.996;2022-10-16T08:52:53;3.20;;;1.00;;
4138;SDS011;2083;51.034;6.996;2022-10-16T08:55:30;1.97;;;0.70;;
4138;SDS011;2083;51.034;6.996;2022-10-16T08:57:57;0.70;;;0.60;;
4138;SDS011;2083;51.034;6.996;2022-10-16T09:00:23;1.27;;;0.73;;
4138;SDS011;2083;51.034;6.996;2022-10-16T09:02:57;1.40;;;0.80;;
4138;SDS011;2083;51.034;6.996;2022-10-16T09:05:49;0.80;;;0.60;;
4138;SDS011;2083;51.034;6.996;2022-10-16T09:08:24;2.17;;;0.97;;
4138;SDS011;2083;51.034;6.996;2022-10-16T09:10:56;2.00;;;1.43;;
4138;SDS011;2083;51.034;6.996;2022-10-16T09:13:29;5.97;;;1.47;;
4138;SDS011;2083;51.034;6.996;2022-10-16T09:18:30;1.30;;;1.00;;
4138;SDS011;2083;51.034;6.996;2022-10-16T09:21:00;1.53;;;0.80;;
4138;SDS011;2083;51.034;6.996;2022-10-16T09:23:33;5.10;;;1.90;;
4138;SDS011;2083;51.034;6.996;2022-10-16T09:25:59;8.43;;;1.10;;
4138;SDS011;2083;51.034;6.996;2022-10-16T09:28:26;7.07;;;1.97;;
4138;SDS011;2083;51.034;6.996;2022-10-16T09:30:52;6.40;;;2.00;;
4138;SDS011;2083;51.034;6.996;2022-10-16T09:33:19;8.73;;;2.70;;
4138;SDS011;2083;51.034;6.996;2022-10-16T09:35:50;12.17;;;3.27;;
4138;SDS011;2083;51.034;6.996;2022-10-16T09:38:20;2.33;;;1.60;;
4138;SDS011;2083;51.034;6.996;2022-10-16T09:40:46;3.40;;;2.03;;
4138;SDS011;2083;51.034;6.996;2022-10-16T09:43:25;2.23;;;1.20;;
4138;SDS011;2083;51.034;6.996;2022-10-16T09:48:21;0.93;;;0.63;;
4138;SDS011;2083;51.034;6.996;2022-10-16T09:51:00;2.63;;;1.10;;
4138;SDS011;2083;51.034;6.996;2022-10-16T09:53:37;2.80;;;1.43;;
4138;SDS011;2083;51.034;6.996;2022-10-16T09:56:04;0.90;;;0.80;;
4138;SDS011;2083;51.034;6.996;2022-10-16T09:58:31;0.87;;;0.70;;
4138;SDS011;2083;51.034;6.996;2022-10-16T10:00:58;2.10;;;0.57;;
4138;SDS011;2083;51.034;6.996;2022-10-16T10:03:37;1.80;;;0.67;;
4138;SDS011;2083;51.034;6.996;2022-10-16T10:08:53;2.27;;;1.67;;
4138;SDS011;2083;51.034;6.996;2022-10-16T10:11:35;1.70;;;0.80;;
4138;SDS011;2083;51.034;6.996;2022-10-16T10:14:18;0.60;;;0.50;;
4138;SDS011;2083;51.034;6.996;2022-10-16T10:16:45;0.87;;;0.53;;
4138;SDS011;2083;51.034;6.996;2022-10-16T10:19:15;0.63;;;0.40;;
4138;SDS011;2083;51.034;6.996;2022-10-16T10:21:41;4.53;;;0.70;;
4138;SDS011;2083;51.034;6.996;2022-10-16T10:24:11;3.83;;;0.80;;
4138;SDS011;2083;51.034;6.996;2022-10-16T10:26:38;0.70;;;0.63;;
4138;SDS011;2083;51.034;6.996;2022-10-16T10:31:34;1.10;;;0.53;;
4138;SDS011;2083;51.034;6.996;2022-10-16T10:34:11;8.43;;;0.60;;
4138;SDS011;2083;51.034;6.996;2022-10-16T10:36:43;0.80;;;0.70;;
4138;SDS011;2083;51.034;6.996;2022-10-16T10:39:17;2.70;;;0.80;;
4138;SDS011;2083;51.034;6.996;2022-10-16T10:47:12;5.40;;;0.83;;
4138;SDS011;2083;51.034;6.996;2022-10-16T10:54:52;1.17;;;0.73;;
4138;SDS011;2083;51.034;6.996;2022-10-16T11:02:22;0.70;;;0.50;;
4138;SDS011;2083;51.034;6.996;2022-10-16T11:07:32;1.00;;;0.80;;
4138;SDS011;2083;51.034;6.996;2022-10-16T11:10:09;1.27;;;1.10;;
4138;SDS011;2083;51.034;6.996;2022-10-16T11:12:40;0.70;;;0.50;;
4138;SDS011;2083;51.034;6.996;2022-10-16T11:15:14;2.13;;;1.00;;
4138;SDS011;2083;51.034;6.996;2022-10-16T11:17:42;6.50;;;0.90;;
4138;SDS011;2083;51.034;6.996;2022-10-16T11:20:13;2.20;;;0.90;;
4138;SDS011;2083;51.034;6.996;2022-10-16T11:22:53;1.67;;;0.90;;
4138;SDS011;2083;51.034;6.996;2022-10-16T11:25:28;3.00;;;0.90;;
4138;SDS011;2083;51.034;6.996;2022-10-16T11:35:39;5.40;;;0.70;;
4138;SDS011;2083;51.034;6.996;2022-10-16T11:38:52;1.17;;;0.77;;
4138;SDS011;2083;51.034;6.996;2022-10-16T11:40:52;2.23;;;1.23;;
4138;SDS011;2083;51.034;6.996;2022-10-16T11:43:22;4.90;;;2.47;;
4138;SDS011;2083;51.034;6.996;2022-10-16T11:45:51;0.90;;;0.70;;
4138;SDS011;2083;51.034;6.996;2022-10-16T11:48:32;0.93;;;0.83;;
4138;SDS011;2083;51.034;6.996;2022-10-16T11:53:45;1.10;;;0.60;;
4138;SDS011;2083;51.034;6.996;2022-10-16T11:56:12;4.60;;;1.23;;
4138;SDS011;2083;51.034;6.996;2022-10-16T11:58:56;2.40;;;0.70;;
4138;SDS011;2083;51.034;6.996;2022-10-16T12:01:28;3.23;;;0.70;;
4138;SDS011;2083;51.034;6.996;2022-10-16T12:06:40;1.87;;;0.93;;
4138;SDS011;2083;51.034;6.996;2022-10-16T12:09:11;3.43;;;2.20;;
4138;SDS011;2083;51.034;6.996;2022-10-16T12:11:40;2.30;;;0.90;;
4138;SDS011;2083;51.034;6.996;2022-10-16T12:16:38;5.40;;;0.60;;
4138;SDS011;2083;51.034;6.996;2022-10-16T12:19:16;4.50;;;0.80;;
4138;SDS011;2083;51.034;6.996;2022-10-16T12:21:43;1.10;;;0.70;;
4138;SDS011;2083;51.034;6.996;2022-10-16T12:26:47;2.60;;;0.60;;
4138;SDS011;2083;51.034;6.996;2022-10-16T12:31:49;2.83;;;0.80;;
4138;SDS011;2083;51.034;6.996;2022-10-16T12:36:53;1.73;;;0.80;;
4138;SDS011;2083;51.034;6.996;2022-10-16T12:39:21;1.80;;;0.60;;
4138;SDS011;2083;51.034;6.996;2022-10-16T12:41:47;1.60;;;1.10;;
4138;SDS011;2083;51.034;6.996;2022-10-16T12:44:25;0.70;;;0.40;;
4138;SDS011;2083;51.034;6.996;2022-10-16T12:46:51;16.60;;;1.20;;
4138;SDS011;2083;51.034;6.996;2022-10-16T12:49:21;1.73;;;1.00;;
4138;SDS011;2083;51.034;6.996;2022-10-16T12:51:47;0.80;;;0.60;;
4138;SDS011;2083;51.034;6.996;2022-10-16T12:54:14;1.43;;;0.60;;
4138;SDS011;2083;51.034;6.996;2022-10-16T12:56:48;1.10;;;0.70;;
4138;SDS011;2083;51.034;6.996;2022-10-16T13:12:18;0.80;;;0.50;;
4138;SDS011;2083;51.034;6.996;2022-10-16T13:17:42;0.90;;;0.70;;
4138;SDS011;2083;51.034;6.996;2022-10-16T13:25:55;1.80;;;0.70;;
4138;SDS011;2083;51.034;6.996;2022-10-16T13:28:14;0.90;;;0.63;;
4138;SDS011;2083;51.034;6.996;2022-10-16T13:30:43;2.80;;;0.60;;
4138;SDS011;2083;51.034;6.996;2022-10-16T13:35:35;1.17;;;0.90;;
4138;SDS011;2083;51.034;6.996;2022-10-16T13:38:12;1.00;;;0.67;;
4138;SDS011;2083;51.034;6.996;2022-10-16T13:40:49;5.70;;;0.80;;
4138;SDS011;2083;51.034;6.996;2022-10-16T13:43:16;2.00;;;1.00;;
4138;SDS011;2083;51.034;6.996;2022-10-16T13:45:51;2.70;;;0.70;;
4138;SDS011;2083;51.034;6.996;2022-10-16T13:48:17;0.80;;;0.50;;
4138;SDS011;2083;51.034;6.996;2022-10-16T13:50:43;2.50;;;0.80;;
4138;SDS011;2083;51.034;6.996;2022-10-16T13:53:13;1.70;;;0.83;;
4138;SDS011;2083;51.034;6.996;2022-10-16T13:55:39;1.17;;;0.83;;
4138;SDS011;2083;51.034;6.996;2022-10-16T13:58:11;1.00;;;0.80;;
4138;SDS011;2083;51.034;6.996;2022-10-16T14:00:37;4.13;;;1.00;;
4138;SDS011;2083;51.034;6.996;2022-10-16T14:03:04;0.80;;;0.70;;
4138;SDS011;2083;51.034;6.996;2022-10-16T14:05:31;0.87;;;0.70;;
4138;SDS011;2083;51.034;6.996;2022-10-16T14:07:57;0.80;;;0.60;;
4138;SDS011;2083;51.034;6.996;2022-10-16T14:10:30;3.27;;;0.60;;
4138;SDS011;2083;51.034;6.996;2022-10-16T14:15:25;1.30;;;0.50;;
4138;SDS011;2083;51.034;6.996;2022-10-16T14:17:51;1.13;;;0.60;;
4138;SDS011;2083;51.034;6.996;2022-10-16T14:20:18;0.70;;;0.40;;
4138;SDS011;2083;51.034;6.996;2022-10-16T14:22:44;2.30;;;0.73;;
4138;SDS011;2083;51.034;6.996;2022-10-16T14:30:28;1.93;;;0.70;;
4138;SDS011;2083;51.034;6.996;2022-10-16T14:32:58;2.27;;;1.00;;
4138;SDS011;2083;51.034;6.996;2022-10-16T14:35:25;1.10;;;0.70;;
4138;SDS011;2083;51.034;6.996;2022-10-16T14:37:53;0.80;;;0.70;;
4138;SDS011;2083;51.034;6.996;2022-10-16T14:40:19;0.90;;;0.70;;
4138;SDS011;2083;51.034;6.996;2022-10-16T14:42:46;1.10;;;0.60;;
4138;SDS011;2083;51.034;6.996;2022-10-16T14:45:12;0.93;;;0.63;;
4138;SDS011;2083;51.034;6.996;2022-10-16T14:48:41;1.20;;;0.70;;
4138;SDS011;2083;51.034;6.996;2022-10-16T14:50:36;1.30;;;0.60;;
4138;SDS011;2083;51.034;6.996;2022-10-16T14:53:04;0.90;;;0.50;;
4138;SDS011;2083;51.034;6.996;2022-10-16T14:55:33;1.30;;;0.80;;
4138;SDS011;2083;51.034;6.996;2022-10-16T14:58:02;0.80;;;0.60;;
4138;SDS011;2083;51.034;6.996;2022-10-16T15:00:28;1.20;;;0.87;;
4138;SDS011;2083;51.034;6.996;2022-10-16T15:02:54;3.03;;;0.70;;
4138;SDS011;2083;51.034;6.996;2022-10-16T15:05:24;1.83;;;0.90;;
4138;SDS011;2083;51.034;6.996;2022-10-16T15:07:51;2.00;;;0.73;;
4138;SDS011;2083;51.034;6.996;2022-10-16T15:10:18;2.00;;;0.80;;
4138;SDS011;2083;51.034;6.996;2022-10-16T15:12:44;1.20;;;0.70;;
4138;SDS011;2083;51.034;6.996;2022-10-16T15:17:48;0.90;;;0.63;;
4138;SDS011;2083;51.034;6.996;2022-10-16T15:20:17;4.10;;;0.90;;
4138;SDS011;2083;51.034;6.996;2022-10-16T15:22:43;1.47;;;0.80;;
4138;SDS011;2083;51.034;6.996;2022-10-16T15:25:22;0.93;;;0.83;;
4138;SDS011;2083;51.034;6.996;2022-10-16T15:27:51;1.30;;;0.93;;
4138;SDS011;2083;51.034;6.996;2022-10-16T15:30:17;0.90;;;0.50;;
4138;SDS011;2083;51.034;6.996;2022-10-16T15:32:43;4.20;;;1.03;;
4138;SDS011;2083;51.034;6.996;2022-10-16T15:35:09;1.83;;;1.30;;
4138;SDS011;2083;51.034;6.996;2022-10-16T15:37:35;1.20;;;0.80;;
4138;SDS011;2083;51.034;6.996;2022-10-16T15:40:01;1.37;;;0.97;;
4138;SDS011;2083;51.034;6.996;2022-10-16T15:42:27;1.23;;;0.90;;
4138;SDS011;2083;51.034;6.996;2022-10-16T15:44:53;1.93;;;1.20;;
4138;SDS011;2083;51.034;6.996;2022-10-16T15:47:19;2.30;;;0.97;;
4138;SDS011;2083;51.034;6.996;2022-10-16T15:49:45;0.77;;;0.70;;
4138;SDS011;2083;51.034;6.996;2022-10-16T15:52:11;1.10;;;0.97;;
4138;SDS011;2083;51.034;6.996;2022-10-16T15:54:37;2.83;;;1.37;;
4138;SDS011;2083;51.034;6.996;2022-10-16T15:57:03;1.97;;;0.93;;
4138;SDS011;2083;51.034;6.996;2022-10-16T15:59:29;2.80;;;1.27;;
4138;SDS011;2083;51.034;6.996;2022-10-16T16:01:55;5.37;;;1.50;;
4138;SDS011;2083;51.034;6.996;2022-10-16T16:04:21;2.30;;;1.80;;
4138;SDS011;2083;51.034;6.996;2022-10-16T16:06:48;1.70;;;1.60;;
4138;SDS011;2083;51.034;6.996;2022-10-16T16:09:14;7.13;;;2.13;;
4138;SDS011;2083;51.034;6.996;2022-10-16T16:11:40;1.87;;;1.63;;
4138;SDS011;2083;51.034;6.996;2022-10-16T16:14:06;4.10;;;1.27;;
4138;SDS011;2083;51.034;6.996;2022-10-16T16:16:32;2.17;;;1.70;;
4138;SDS011;2083;51.034;6.996;2022-10-16T16:19:02;3.83;;;1.33;;
4138;SDS011;2083;51.034;6.996;2022-10-16T16:21:28;1.73;;;1.10;;
4138;SDS011;2083;51.034;6.996;2022-10-16T16:23:54;7.30;;;1.50;;
4138;SDS011;2083;51.034;6.996;2022-10-16T16:26:24;2.33;;;1.10;;
4138;SDS011;2083;51.034;6.996;2022-10-16T16:28:51;1.03;;;0.90;;
4138;SDS011;2083;51.034;6.996;2022-10-16T16:31:17;1.23;;;1.13;;
4138;SDS011;2083;51.034;6.996;2022-10-16T16:33:43;1.10;;;1.00;;
4138;SDS011;2083;51.034;6.996;2022-10-16T16:36:09;1.37;;;1.27;;
4138;SDS011;2083;51.034;6.996;2022-10-16T16:38:35;1.93;;;1.80;;
4138;SDS011;2083;51.034;6.996;2022-10-16T16:41:15;1.03;;;0.93;;
4138;SDS011;2083;51.034;6.996;2022-10-16T16:43:42;2.80;;;1.10;;
4138;SDS011;2083;51.034;6.996;2022-10-16T16:46:08;1.37;;;1.23;;
4138;SDS011;2083;51.034;6.996;2022-10-16T16:48:34;2.10;;;1.40;;
4138;SDS011;2083;51.034;6.996;2022-10-16T16:51:07;1.00;;;0.97;;
4138;SDS011;2083;51.034;6.996;2022-10-16T16:53:34;5.70;;;0.97;;
4138;SDS011;2083;51.034;6.996;2022-10-16T16:56:00;1.00;;;0.83;;
4138;SDS011;2083;51.034;6.996;2022-10-16T16:58:27;1.30;;;1.20;;
4138;SDS011;2083;51.034;6.996;2022-10-16T17:00:52;1.30;;;1.20;;
4138;SDS011;2083;51.034;6.996;2022-10-16T17:03:18;0.87;;;0.87;;